Huvudsida
METAR-TAF:

METAR-TAF

Flygplatser :

Zaqatala International Airport

Zaqatala, Azerbajdzjan

latitud: 41-33-44N, longitud: 46-40-02E, höjd: 330 m

Aktuellt väderrapport

Denna rapport gjordes för 46 minuter sedan, klockan 11:00 UTC
Vind 4 kt från nord
Temperatur 30°C
Fuktighet 46%
Tryck 1014 hPa
Sikt 10 km eller mer
Få moln på en höjd av 4500 ft
Spridda moln på en höjd av 10000 ft

METAR: UBBY 141100Z 36004KT 9999 FEW045 SCT100 30/17 Q1014 NOSIG

Tid: 15:46 (11:46 UTC)

Väderprognos

Denna rapport gjordes för 46 minuter sedan, klockan 11:00 UTC
Prognos gäller från 14 kl. 12 UTC till 14 kl. 21 UTC
Vind 4 kt varierande vindriktning
Sikt 10 km eller mer
Få moln på en höjd av 4500 ft
Spridda moln på en höjd av 10000 ft
Temporärt
från 14 kl. 14 UTC till 14 kl. 18 UTC
Spridda moln på en höjd av 4000 ft, Cumulonimbus.

TAF: UBBY 141100Z 1412/1421 VRB04KT 9999 FEW045 SCT100 TEMPO 1414/1418 SCT040CB

Aktuella väderrapporter och prognoser från 4000 flygplatser (METAR- och TAF-rapporter).

De tillgängliga stationerna syns som gula och röda prickar på kartan.

För musen över prickarna för att se namnen på stationerna.

Klicka sedan för att få väderrapporter och prognoser.

För att ändra kartan: Klicka på de gröna knapparna med ett svart kors på för att zooma in; den gröna knappen med ett streck på för att zooma ut; eller på de gröna pilarna för angränsande kartor.


METAR-TAF: